Time;durP1;ratioP1;P1;durP2;ratioP2;P2;SDS_P1;SDS_P2;PMS_P1;PMS_P2;Temp;Humidity;BMP_temperature;BMP_pressure;BME280_temperature;BME280_humidity;BME280_pressure;Samples;Min_cycle;Max_cycle;Signal;HPM_P1;HPM_P2
2023/01/18 00:00:40;;;;;;;4.35;2.20;;;15.90;69.60;;;;;;4177238;28;20064;-64
2023/01/18 00:03:21;;;;;;;2.17;1.88;;;16.00;69.40;;;;;;4177052;28;20503;-65
2023/01/18 00:06:04;;;;;;;3.88;2.03;;;16.00;69.00;;;;;;4178132;28;20118;-64
2023/01/18 00:08:45;;;;;;;3.50;2.20;;;16.00;69.00;;;;;;4188266;28;20118;-64
2023/01/18 00:11:27;;;;;;;3.35;1.88;;;16.00;68.70;;;;;;4178092;28;20052;-64
2023/01/18 00:14:08;;;;;;;2.45;1.90;;;16.10;68.60;;;;;;4178086;28;20183;-64
2023/01/18 00:16:49;;;;;;;2.33;2.22;;;16.10;68.60;;;;;;4176853;28;20086;-64
2023/01/18 00:19:32;;;;;;;4.35;2.38;;;16.00;68.70;;;;;;4177951;28;20056;-64
2023/01/18 00:22:13;;;;;;;3.75;3.10;;;16.10;69.70;;;;;;4188347;28;20579;-65
2023/01/18 00:24:54;;;;;;;2.97;2.37;;;16.10;68.50;;;;;;4177917;28;20491;-64
2023/01/18 00:27:36;;;;;;;2.70;2.50;;;16.10;68.30;;;;;;4177401;28;20048;-64
2023/01/18 00:30:19;;;;;;;3.92;2.67;;;16.10;68.30;;;;;;4177860;28;20056;-65
2023/01/18 00:33:00;;;;;;;4.32;2.38;;;16.10;68.40;;;;;;4176785;28;20071;-65
2023/01/18 00:35:41;;;;;;;6.43;2.63;;;16.00;68.50;;;;;;4177595;28;20126;-64
2023/01/18 00:38:22;;;;;;;4.18;2.40;;;16.00;68.50;;;;;;4177529;28;20052;-64
2023/01/18 00:41:03;;;;;;;2.63;2.42;;;16.00;68.50;;;;;;4177412;28;20060;-64
2023/01/18 00:43:44;;;;;;;2.65;2.45;;;16.00;68.80;;;;;;4177626;28;20135;-64
2023/01/18 00:46:26;;;;;;;3.35;1.90;;;16.00;68.70;;;;;;4177027;28;20059;-64
2023/01/18 00:49:07;;;;;;;2.53;2.28;;;16.00;68.50;;;;;;4177426;28;20056;-63
2023/01/18 00:51:51;;;;;;;4.15;2.80;;;16.10;68.40;;;;;;4177067;28;20059;-63
2023/01/18 00:54:31;;;;;;;4.40;2.95;;;16.00;68.20;;;;;;4177463;28;20056;-63
2023/01/18 00:57:13;;;;;;;5.10;2.67;;;16.00;68.50;;;;;;4177495;28;20056;-63
2023/01/18 00:59:55;;;;;;;4.07;2.58;;;16.00;68.50;;;;;;4177080;28;20048;-63
2023/01/18 01:02:38;;;;;;;3.65;2.53;;;16.00;68.40;;;;;;4176726;28;20048;-63
2023/01/18 01:08:20;;;;;;;4.53;2.55;;;15.90;68.60;;;;;;4176749;28;20044;-63
2023/01/18 01:11:07;;;;;;;3.05;2.20;;;15.90;69.60;;;;;;4176511;28;20044;-63
2023/01/18 01:28:43;;;;;;;2.90;2.65;;;15.60;69.60;;;;;;4176867;28;20055;-63
2023/01/18 01:31:24;;;;;;;2.55;2.35;;;15.60;69.70;;;;;;4176783;28;20048;-63
2023/01/18 01:34:06;;;;;;;3.10;2.70;;;15.60;69.70;;;;;;4176430;28;20089;-63
2023/01/18 01:36:50;;;;;;;3.80;2.67;;;15.70;69.70;;;;;;4176627;28;20060;-63
2023/01/18 01:39:30;;;;;;;2.63;2.42;;;15.70;69.80;;;;;;4176436;28;20055;-63
2023/01/18 01:42:12;;;;;;;2.22;2.03;;;15.80;69.40;;;;;;4176272;28;20094;-63
2023/01/18 01:44:54;;;;;;;3.15;2.33;;;15.80;69.00;;;;;;4176276;28;20059;-65
2023/01/18 01:47:39;;;;;;;2.35;2.25;;;15.90;68.90;;;;;;4176401;28;20047;-64
2023/01/18 01:50:27;;;;;;;3.58;2.75;;;15.90;68.70;;;;;;4176566;28;20133;-64
2023/01/18 01:53:10;;;;;;;6.57;2.40;;;15.90;68.50;;;;;;4176214;28;20499;-63
2023/01/18 01:55:51;;;;;;;4.68;3.13;;;15.90;68.40;;;;;;4176162;28;20118;-64
2023/01/18 01:58:32;;;;;;;5.82;3.15;;;15.90;69.50;;;;;;4176106;28;20052;-63
2023/01/18 02:01:13;;;;;;;;;;;15.90;68.70;;;;;;4176624;28;20380;-64
2023/01/18 02:03:57;;;;;;;4.10;2.80;;;16.00;69.00;;;;;;4176348;28;20050;-64
2023/01/18 02:06:40;;;;;;;5.18;3.00;;;16.00;68.60;;;;;;4176528;28;20094;-63
2023/01/18 02:09:22;;;;;;;3.92;3.17;;;16.00;68.20;;;;;;4176210;28;20052;-63
2023/01/18 02:12:03;;;;;;;3.67;2.65;;;16.10;68.20;;;;;;4176252;28;20179;-64
2023/01/18 02:14:44;;;;;;;4.00;2.72;;;16.10;67.80;;;;;;4176224;28;20064;-64
2023/01/18 02:17:43;;;;;;;4.90;3.33;;;16.10;67.70;;;;;;4176116;28;20118;-64
2023/01/18 02:20:50;;;;;;;3.17;2.97;;;16.10;67.80;;;;;;4175885;28;20056;-64
2023/01/18 02:24:17;;;;;;;2.92;2.65;;;16.10;67.70;;;;;;4175653;28;20055;-63
2023/01/18 02:27:04;;;;;;;5.15;3.38;;;16.10;67.40;;;;;;4175552;28;20059;-64
2023/01/18 02:30:03;;;;;;;3.88;3.50;;;16.10;67.50;;;;;;4176056;28;20055;-64
2023/01/18 02:33:02;;;;;;;4.85;3.28;;;16.10;67.40;;;;;;4176049;28;20179;-64
2023/01/18 02:35:50;;;;;;;4.60;3.92;;;16.00;67.70;;;;;;4175443;28;20045;-64
2023/01/18 02:38:39;;;;;;;5.07;3.60;;;16.00;68.00;;;;;;4175987;28;20052;-64
2023/01/18 02:46:29;;;;;;;4.63;3.17;;;16.00;67.80;;;;;;4175611;28;20563;-64
2023/01/18 02:47:38;;;;;;;5.38;3.30;;;16.00;67.90;;;;;;4175770;28;20048;-64
2023/01/18 02:50:26;;;;;;;4.72;3.30;;;16.00;67.80;;;;;;4175903;28;20052;-64
2023/01/18 02:53:07;;;;;;;6.07;4.40;;;16.00;67.60;;;;;;4175692;28;20191;-64
2023/01/18 02:55:53;;;;;;;7.82;3.95;;;16.00;67.90;;;;;;4175716;28;20121;-63
2023/01/18 02:58:38;;;;;;;4.05;3.65;;;16.00;67.80;;;;;;4175290;28;20495;-63
2023/01/18 03:01:25;;;;;;;3.78;3.40;;;16.00;67.80;;;;;;4175668;28;20047;-63
2023/01/18 03:04:12;;;;;;;3.80;3.40;;;16.00;67.80;;;;;;4175476;28;20052;-64
2023/01/18 03:06:57;;;;;;;4.25;3.80;;;16.00;67.80;;;;;;4175613;28;20055;-63
2023/01/18 03:09:39;;;;;;;5.85;3.30;;;16.00;67.80;;;;;;4175346;28;20102;-64
2023/01/18 03:12:24;;;;;;;5.32;4.20;;;16.10;67.70;;;;;;4175625;28;20060;-63
2023/01/18 03:15:12;;;;;;;4.88;3.47;;;16.00;67.50;;;;;;4175562;28;20087;-64
2023/01/18 03:17:56;;;;;;;4.63;4.13;;;16.00;67.60;;;;;;4175599;28;20064;-63
2023/01/18 03:20:43;;;;;;;5.70;3.90;;;16.00;67.80;;;;;;4175674;28;20130;-63
2023/01/18 03:23:38;;;;;;;3.42;3.10;;;16.00;67.50;;;;;;4175667;28;20483;-64
2023/01/18 03:26:21;;;;;;;4.40;3.28;;;16.00;67.60;;;;;;4175334;28;20815;-63
2023/01/18 03:35:10;;;;;;;5.72;4.22;;;15.70;68.20;;;;;;4176334;28;20060;-63
2023/01/18 03:37:55;;;;;;;4.47;3.90;;;15.70;68.70;;;;;;4178523;28;20142;-64
2023/01/18 03:40:36;;;;;;;6.60;3.90;;;15.50;68.90;;;;;;4178624;28;20388;-63
2023/01/18 03:43:20;;;;;;;8.60;4.20;;;15.50;69.30;;;;;;4178358;28;20064;-64
2023/01/18 03:46:02;;;;;;;3.85;3.53;;;15.50;69.50;;;;;;4178284;28;20493;-64
2023/01/18 03:48:43;;;;;;;3.63;3.30;;;15.60;69.50;;;;;;4178314;28;20079;-63
2023/01/18 03:51:31;;;;;;;6.85;3.42;;;15.70;69.20;;;;;;4178129;28;20056;-64
2023/01/18 03:54:17;;;;;;;5.10;3.55;;;15.70;68.80;;;;;;4178201;28;20127;-64
2023/01/18 03:57:02;;;;;;;4.50;3.70;;;15.80;68.50;;;;;;4178294;28;20055;-63
2023/01/18 03:59:44;;;;;;;5.32;3.80;;;15.70;68.50;;;;;;4178236;28;20060;-63
2023/01/18 04:02:27;;;;;;;3.97;3.30;;;15.80;68.70;;;;;;4178425;28;20502;-64
2023/01/18 04:05:09;;;;;;;4.95;3.38;;;15.80;68.30;;;;;;4176867;28;20054;-63
2023/01/18 04:07:51;;;;;;;5.88;3.72;;;15.90;68.10;;;;;;4177953;28;20049;-63
2023/01/18 04:10:33;;;;;;;4.72;3.30;;;15.90;68.10;;;;;;4178091;28;20094;-63
2023/01/18 04:13:14;;;;;;;4.03;3.17;;;15.90;67.80;;;;;;4178043;28;20056;-63
2023/01/18 04:15:54;;;;;;;5.93;3.38;;;15.90;67.70;;;;;;4178119;28;20182;-63
2023/01/18 04:18:35;;;;;;;3.75;3.45;;;16.00;68.60;;;;;;4177363;28;20052;-63
2023/01/18 04:21:16;;;;;;;3.95;3.38;;;16.00;67.80;;;;;;4177635;28;20214;-63
2023/01/18 04:23:57;;;;;;;4.65;3.78;;;16.00;67.70;;;;;;4177927;28;20052;-63
2023/01/18 04:26:39;;;;;;;4.97;4.47;;;16.00;68.40;;;;;;4177687;28;20087;-63
2023/01/18 04:29:20;;;;;;;7.55;4.72;;;16.00;67.40;;;;;;4176524;28;20194;-63
2023/01/18 04:32:01;;;;;;;5.03;4.53;;;16.00;67.50;;;;;;4177771;28;20118;-63
2023/01/18 04:34:42;;;;;;;5.10;4.18;;;15.90;67.50;;;;;;4177502;28;20079;-63
2023/01/18 04:37:29;;;;;;;4.85;4.38;;;15.90;67.70;;;;;;4177885;28;20076;-63
2023/01/18 04:40:12;;;;;;;3.65;3.35;;;15.80;67.70;;;;;;4177481;28;20075;-63
2023/01/18 04:42:54;;;;;;;6.47;3.70;;;15.80;68.10;;;;;;4177734;28;20051;-63
2023/01/18 04:45:36;;;;;;;4.50;4.10;;;15.80;68.00;;;;;;4176129;28;20100;-63
2023/01/18 04:48:17;;;;;;;4.25;3.67;;;15.80;67.90;;;;;;4176950;28;20056;-63
2023/01/18 04:50:58;;;;;;;4.72;4.03;;;15.80;67.90;;;;;;4176864;28;20483;-63
2023/01/18 04:53:40;;;;;;;4.60;3.85;;;15.80;68.00;;;;;;4177130;28;20068;-63
2023/01/18 04:56:21;;;;;;;4.93;4.22;;;15.90;67.80;;;;;;4177338;28;20213;-63
2023/01/18 04:59:04;;;;;;;4.30;3.95;;;15.90;67.50;;;;;;4177341;28;20438;-63
2023/01/18 05:01:45;;;;;;;4.82;4.32;;;16.00;67.40;;;;;;4177186;28;20040;-63
2023/01/18 05:04:26;;;;;;;6.03;3.97;;;16.00;67.30;;;;;;4176960;28;20052;-63
2023/01/18 05:07:07;;;;;;;4.88;4.35;;;16.00;67.00;;;;;;4177154;28;20086;-63
2023/01/18 05:09:48;;;;;;;4.65;4.15;;;16.10;66.90;;;;;;4177039;28;20392;-63
2023/01/18 05:12:30;;;;;;;5.15;3.83;;;16.10;66.90;;;;;;4177019;28;20479;-63
2023/01/18 05:15:12;;;;;;;7.78;4.07;;;16.10;67.00;;;;;;4177055;28;20051;-63
2023/01/18 05:17:53;;;;;;;4.70;4.30;;;16.10;66.80;;;;;;4177054;28;20048;-64
2023/01/18 05:20:34;;;;;;;5.20;4.53;;;16.20;66.70;;;;;;4177032;28;20055;-63
2023/01/18 05:23:15;;;;;;;6.50;4.60;;;16.20;66.40;;;;;;4177002;28;20055;-63
2023/01/18 05:25:57;;;;;;;5.10;4.70;;;16.20;66.30;;;;;;4176738;28;20290;-62
2023/01/18 05:28:38;;;;;;;5.40;4.90;;;16.20;66.30;;;;;;4176685;28;20055;-62
2023/01/18 05:31:20;;;;;;;5.07;4.28;;;16.20;66.20;;;;;;4176248;28;20071;-63
2023/01/18 05:34:01;;;;;;;7.85;4.95;;;16.20;66.10;;;;;;4176362;28;20076;-62
2023/01/18 05:36:42;;;;;;;5.30;4.80;;;16.10;66.20;;;;;;4176489;28;20059;-62
2023/01/18 05:39:23;;;;;;;6.95;4.97;;;16.10;66.30;;;;;;4176913;28;20491;-62
2023/01/18 05:42:05;;;;;;;5.45;4.88;;;16.00;66.50;;;;;;4176630;28;20071;-62
2023/01/18 05:44:46;;;;;;;;;;;16.00;66.80;;;;;;4177166;28;20059;-62
2023/01/18 05:47:28;;;;;;;4.75;4.30;;;16.00;66.90;;;;;;4176794;28;20051;-63
2023/01/18 05:50:09;;;;;;;4.95;4.45;;;16.10;66.60;;;;;;4176243;28;20078;-62
2023/01/18 05:52:50;;;;;;;5.95;4.65;;;16.10;66.50;;;;;;4176175;28;20176;-62
2023/01/18 05:55:31;;;;;;;5.63;5.00;;;16.10;66.30;;;;;;4176464;28;20071;-62
2023/01/18 05:58:12;;;;;;;;;;;16.10;67.10;;;;;;4176292;28;20052;-62
2023/01/18 06:00:53;;;;;;;6.45;4.90;;;16.10;66.20;;;;;;4176317;28;20066;-62
2023/01/18 06:03:36;;;;;;;6.07;4.63;;;16.10;66.30;;;;;;4176307;28;20052;-62
2023/01/18 06:06:17;;;;;;;5.30;4.88;;;16.10;66.20;;;;;;4176303;28;20057;-62
2023/01/18 06:09:00;;;;;;;4.90;4.50;;;16.20;66.20;;;;;;4176201;28;20083;-62
2023/01/18 06:11:41;;;;;;;4.68;4.13;;;16.20;65.90;;;;;;4176273;28;20503;-62
2023/01/18 06:14:22;;;;;;;7.05;4.70;;;16.20;66.10;;;;;;4176108;28;20056;-63
2023/01/18 06:17:03;;;;;;;4.75;4.30;;;16.20;66.00;;;;;;4176228;28;20056;-63
2023/01/18 06:19:45;;;;;;;7.63;4.75;;;16.20;65.90;;;;;;4176276;28;20183;-63
2023/01/18 06:22:26;;;;;;;4.85;4.35;;;16.20;65.80;;;;;;4175995;28;20059;-63
2023/01/18 06:25:08;;;;;;;6.28;4.90;;;16.20;65.60;;;;;;4176085;28;20102;-63
2023/01/18 06:27:49;;;;;;;5.38;4.40;;;16.10;65.60;;;;;;4176009;28;20048;-64
2023/01/18 06:30:30;;;;;;;5.07;4.43;;;16.10;65.90;;;;;;4175842;28;20052;-63
2023/01/18 06:33:11;;;;;;;5.75;4.13;;;16.00;66.10;;;;;;4176096;28;20420;-63
2023/01/18 06:35:53;;;;;;;5.07;4.10;;;15.80;66.50;;;;;;4175763;28;20080;-63
2023/01/18 06:38:34;;;;;;;6.07;4.20;;;15.80;66.80;;;;;;4175763;28;20048;-63
2023/01/18 06:41:16;;;;;;;4.30;3.95;;;15.70;67.10;;;;;;4175675;28;20056;-63
2023/01/18 06:43:56;;;;;;;5.85;4.60;;;15.70;67.50;;;;;;4175508;28;20067;-63
2023/01/18 06:46:38;;;;;;;7.03;5.05;;;15.80;67.40;;;;;;4175963;28;20395;-63
2023/01/18 06:49:18;;;;;;;4.80;4.30;;;15.80;67.20;;;;;;4175937;28;20079;-63
2023/01/18 06:52:01;;;;;;;6.55;4.22;;;15.90;67.80;;;;;;4175603;28;20056;-63
2023/01/18 06:54:43;;;;;;;4.53;4.13;;;15.90;66.60;;;;;;4175341;28;20052;-64
2023/01/18 06:57:24;;;;;;;5.22;4.72;;;16.00;66.30;;;;;;4175521;28;20067;-63
2023/01/18 07:00:07;;;;;;;6.20;4.72;;;16.00;66.20;;;;;;4175519;28;20585;-63
2023/01/18 07:02:48;;;;;;;6.70;4.60;;;16.00;65.90;;;;;;4175669;28;20056;-63
2023/01/18 07:05:29;;;;;;;6.47;4.28;;;16.00;66.00;;;;;;4175460;28;20052;-63
2023/01/18 07:08:11;;;;;;;5.55;4.20;;;16.00;66.10;;;;;;4175733;28;20396;-63
2023/01/18 07:10:53;;;;;;;6.50;4.38;;;16.10;65.60;;;;;;4178943;28;20060;-62
2023/01/18 07:13:38;;;;;;;5.40;4.15;;;16.10;65.50;;;;;;4178994;28;20048;-64
2023/01/18 07:16:20;;;;;;;4.70;4.30;;;16.00;65.10;;;;;;4179113;28;20056;-64
2023/01/18 07:19:02;;;;;;;;;;;16.00;65.40;;;;;;4179004;28;20126;-64
2023/01/18 07:21:43;;;;;;;5.13;4.60;;;16.00;65.30;;;;;;4178636;28;20399;-64
2023/01/18 07:24:26;;;;;;;6.07;4.40;;;16.00;65.10;;;;;;4177427;28;20171;-64
2023/01/18 07:27:06;;;;;;;5.40;4.25;;;16.10;64.60;;;;;;4178652;28;20052;-64
2023/01/18 07:29:48;;;;;;;5.30;4.38;;;16.10;64.10;;;;;;4177503;28;20199;-64
2023/01/18 07:32:29;;;;;;;6.32;3.90;;;16.10;64.90;;;;;;4178579;28;20180;-64
2023/01/18 07:35:10;;;;;;;6.93;5.03;;;16.10;63.70;;;;;;4177976;28;20420;-64
2023/01/18 07:37:52;;;;;;;6.15;4.20;;;16.10;63.70;;;;;;4178442;28;20052;-64
2023/01/18 07:40:35;;;;;;;6.43;4.78;;;16.10;63.60;;;;;;4178675;28;20047;-64
2023/01/18 07:43:17;;;;;;;6.57;4.32;;;16.10;63.50;;;;;;4178444;28;20048;-65
2023/01/18 07:45:58;;;;;;;6.30;3.92;;;16.00;63.60;;;;;;4176537;28;20402;-64
2023/01/18 07:48:39;;;;;;;5.00;3.92;;;15.90;63.70;;;;;;4177931;28;20094;-65
2023/01/18 07:51:21;;;;;;;6.83;4.47;;;15.80;64.10;;;;;;4178094;28;20506;-64
2023/01/18 07:54:02;;;;;;;5.32;4.20;;;15.70;64.40;;;;;;4178133;28;20063;-64
2023/01/18 07:56:44;;;;;;;5.75;4.35;;;15.70;64.40;;;;;;4178218;28;20056;-64
2023/01/18 07:59:26;;;;;;;5.88;4.57;;;15.60;64.30;;;;;;4178110;28;20198;-65
2023/01/18 08:02:11;;;;;;;4.90;4.30;;;15.60;64.30;;;;;;4177848;28;20098;-64
2023/01/18 08:04:52;;;;;;;5.07;4.20;;;15.60;64.60;;;;;;4176677;28;20499;-64
2023/01/18 08:07:33;;;;;;;5.93;4.40;;;15.70;64.60;;;;;;4178006;28;20043;-63
2023/01/18 08:10:14;;;;;;;4.72;3.90;;;15.80;64.20;;;;;;4178181;28;20561;-64
2023/01/18 08:12:57;;;;;;;5.93;3.92;;;15.80;64.00;;;;;;4178044;28;20051;-64
2023/01/18 08:15:39;;;;;;;4.53;3.95;;;15.80;63.70;;;;;;4177612;28;20056;-64
2023/01/18 08:18:20;;;;;;;5.35;3.92;;;15.90;63.60;;;;;;4177827;28;20614;-64
2023/01/18 08:21:01;;;;;;;6.57;4.00;;;15.90;63.40;;;;;;4177850;28;20137;-64
2023/01/18 08:23:42;;;;;;;6.03;4.03;;;16.00;63.20;;;;;;4174664;28;20782;-64
2023/01/18 08:26:23;;;;;;;4.93;4.43;;;16.00;63.20;;;;;;4187029;28;20129;-64
2023/01/18 08:29:06;;;;;;;5.20;3.83;;;16.10;63.10;;;;;;4177710;28;20060;-64
2023/01/18 08:31:51;;;;;;;5.57;3.90;;;16.10;62.90;;;;;;4183525;28;20831;-64
2023/01/18 08:34:32;;;;;;;4.35;4.00;;;16.10;62.80;;;;;;4188699;28;20052;-64
2023/01/18 08:37:12;;;;;;;4.45;4.05;;;16.10;62.70;;;;;;4187885;28;20494;-63
2023/01/18 08:39:53;;;;;;;5.75;3.90;;;16.10;62.80;;;;;;4191330;28;20490;-64
2023/01/18 08:42:35;;;;;;;4.70;3.83;;;16.00;62.80;;;;;;4175115;28;20055;-64
2023/01/18 08:45:17;;;;;;;4.55;3.92;;;15.90;62.90;;;;;;4178380;28;20444;-64
2023/01/18 08:47:59;;;;;;;3.88;3.58;;;15.80;63.10;;;;;;4188784;28;20051;-64
2023/01/18 08:50:41;;;;;;;6.32;3.85;;;15.80;63.60;;;;;;4190685;28;20059;-64
2023/01/18 08:53:22;;;;;;;6.85;3.97;;;15.80;63.70;;;;;;4186112;28;20055;-64
2023/01/18 08:56:05;;;;;;;4.50;4.15;;;15.80;63.60;;;;;;4181818;28;20051;-65
2023/01/18 08:58:46;;;;;;;6.05;3.58;;;15.90;63.40;;;;;;4176833;28;20109;-68
2023/01/18 09:01:29;;;;;;;6.22;4.28;;;16.00;63.10;;;;;;4177985;28;20056;-66
2023/01/18 09:04:10;;;;;;;4.10;3.47;;;16.00;62.80;;;;;;4174487;28;20056;-66
2023/01/18 09:06:51;;;;;;;5.47;4.18;;;16.10;62.50;;;;;;4178353;28;20055;-66
2023/01/18 09:09:32;;;;;;;4.78;4.32;;;16.10;62.40;;;;;;4188144;28;20161;-66
2023/01/18 09:12:13;;;;;;;4.22;3.83;;;16.10;62.20;;;;;;4190749;28;20644;-66
2023/01/18 09:14:54;;;;;;;7.15;4.63;;;16.10;62.20;;;;;;4181676;28;20163;-67
2023/01/18 09:17:37;;;;;;;5.72;4.72;;;16.10;62.20;;;;;;4190853;28;20051;-67
2023/01/18 09:20:18;;;;;;;6.13;4.78;;;16.10;62.40;;;;;;4181693;28;20099;-66
2023/01/18 09:23:03;;;;;;;4.38;3.97;;;16.00;62.50;;;;;;4184889;28;20051;-66
2023/01/18 09:25:44;;;;;;;5.68;4.75;;;15.90;62.90;;;;;;4175682;28;20516;-66
2023/01/18 09:28:26;;;;;;;4.90;4.40;;;15.80;63.10;;;;;;4174404;28;20052;-66
2023/01/18 09:31:08;;;;;;;5.50;4.07;;;15.70;63.30;;;;;;4181611;28;20056;-67
2023/01/18 09:33:51;;;;;;;6.72;4.55;;;15.60;63.70;;;;;;4176436;28;20495;-66
2023/01/18 09:36:33;;;;;;;8.65;4.28;;;15.60;63.90;;;;;;4187080;28;20079;-66
2023/01/18 09:39:14;;;;;;;6.50;4.18;;;15.60;63.90;;;;;;4193087;28;20051;-66
2023/01/18 09:41:59;;;;;;;5.03;4.53;;;15.60;64.20;;;;;;4192028;28;20051;-66
2023/01/18 09:44:44;;;;;;;5.00;4.50;;;15.50;64.20;;;;;;4192740;28;20062;-66
2023/01/18 09:47:27;;;;;;;9.20;4.45;;;15.40;64.40;;;;;;4192698;28;20063;-66
2023/01/18 09:50:15;;;;;;;4.93;4.40;;;15.40;64.80;;;;;;4192926;28;20082;-66
2023/01/18 09:53:03;;;;;;;6.35;4.90;;;15.30;65.30;;;;;;4191725;28;20068;-66
2023/01/18 09:55:51;;;;;;;5.90;4.00;;;15.30;65.50;;;;;;4192889;28;20459;-66
2023/01/18 09:58:45;;;;;;;5.38;4.28;;;15.40;65.20;;;;;;4192843;28;20063;-65
2023/01/18 10:01:30;;;;;;;5.40;4.05;;;15.50;64.40;;;;;;4191988;28;20059;-65
2023/01/18 10:04:17;;;;;;;5.97;4.47;;;15.60;64.30;;;;;;4192096;28;20114;-65
2023/01/18 10:07:01;;;;;;;5.32;4.20;;;15.70;63.50;;;;;;4192243;28;20174;-64
2023/01/18 10:09:44;;;;;;;5.22;4.00;;;15.80;63.30;;;;;;4191861;28;20104;-64
2023/01/18 10:12:33;;;;;;;4.60;4.20;;;15.90;62.80;;;;;;4192484;28;20106;-64
2023/01/18 10:15:20;;;;;;;5.72;4.40;;;15.90;62.50;;;;;;4192468;28;20070;-65
2023/01/18 10:18:02;;;;;;;5.53;4.50;;;16.00;62.10;;;;;;4192634;28;20506;-65
2023/01/18 10:20:47;;;;;;;6.05;5.03;;;16.10;61.80;;;;;;4192392;28;20575;-64
2023/01/18 10:23:34;;;;;;;4.40;3.90;;;16.10;62.50;;;;;;4192535;28;20194;-64
2023/01/18 10:26:20;;;;;;;7.68;4.50;;;16.10;61.50;;;;;;4192246;28;20063;-64
2023/01/18 10:29:14;;;;;;;6.20;5.07;;;16.10;61.30;;;;;;4192247;28;20071;-64
2023/01/18 10:32:00;;;;;;;4.78;4.10;;;16.10;61.20;;;;;;4192030;28;20039;-64
2023/01/18 10:34:45;;;;;;;5.07;4.40;;;16.00;61.40;;;;;;4192139;28;20067;-64
2023/01/18 10:37:36;;;;;;;4.85;4.28;;;16.00;61.60;;;;;;4175917;28;20052;-64
2023/01/18 10:40:18;;;;;;;4.80;4.10;;;16.10;61.30;;;;;;4175782;28;20064;-65
2023/01/18 10:43:01;;;;;;;4.45;4.05;;;16.20;61.30;;;;;;4175672;28;20411;-64
2023/01/18 10:45:42;;;;;;;5.68;4.28;;;16.20;61.00;;;;;;4175352;28;20059;-64
2023/01/18 10:48:30;;;;;;;4.57;4.20;;;16.20;60.90;;;;;;4175846;28;20044;-64
2023/01/18 10:51:25;;;;;;;4.57;4.18;;;16.20;60.80;;;;;;4175687;28;20048;-64
2023/01/18 10:54:27;;;;;;;4.68;3.78;;;16.20;60.40;;;;;;4175034;28;20542;-66
2023/01/18 10:57:19;;;;;;;;;;;16.30;60.20;;;;;;4175595;28;20475;-66
2023/01/18 11:00:01;;;;;;;5.15;3.58;;;16.30;60.30;;;;;;4175362;28;19927;-66
2023/01/18 11:02:45;;;;;;;5.22;3.90;;;16.30;60.20;;;;;;4175557;28;20060;-67
2023/01/18 11:05:30;;;;;;;5.03;3.97;;;16.20;60.00;;;;;;4175370;28;20766;-67
2023/01/18 11:08:13;;;;;;;4.57;4.18;;;16.20;60.10;;;;;;4175155;28;20102;-68
2023/01/18 11:11:02;;;;;;;4.38;3.97;;;16.10;60.30;;;;;;4175477;28;20102;-64
2023/01/18 11:13:46;;;;;;;4.93;4.20;;;16.00;60.80;;;;;;4175603;28;20064;-63
2023/01/18 11:16:28;;;;;;;4.95;4.32;;;16.00;61.00;;;;;;4175063;28;20416;-65
2023/01/18 11:19:16;;;;;;;;;;;16.10;60.80;;;;;;4175921;28;20055;-64
2023/01/18 11:21:57;;;;;;;7.15;3.60;;;16.10;60.80;;;;;;4175396;28;19932;-64
2023/01/18 11:24:39;;;;;;;4.03;3.63;;;16.10;60.80;;;;;;4175124;28;20048;-64
2023/01/18 11:27:24;;;;;;;4.43;3.85;;;16.10;60.70;;;;;;4175299;28;20052;-65
2023/01/18 11:30:20;;;;;;;5.00;3.83;;;16.10;60.90;;;;;;4175192;28;20047;-65
2023/01/18 11:33:01;;;;;;;4.30;3.90;;;16.20;60.90;;;;;;4175008;28;20181;-71
2023/01/18 11:35:43;;;;;;;4.57;4.05;;;16.20;61.20;;;;;;4175276;28;20059;-70
2023/01/18 11:38:30;;;;;;;4.97;4.22;;;16.30;61.70;;;;;;4175253;28;20190;-71
2023/01/18 11:41:17;;;;;;;4.90;3.33;;;16.30;61.90;;;;;;4175240;28;20754;-66
2023/01/18 11:44:08;;;;;;;4.57;3.58;;;16.30;62.00;;;;;;4175319;28;20506;-67
2023/01/18 11:46:53;;;;;;;4.47;3.97;;;16.30;62.30;;;;;;4175031;28;20134;-64
2023/01/18 11:49:41;;;;;;;6.78;3.85;;;16.30;62.80;;;;;;4175226;28;20059;-63
2023/01/18 11:52:36;;;;;;;5.22;3.47;;;16.30;63.40;;;;;;4175308;28;20052;-64
2023/01/18 11:55:24;;;;;;;4.43;3.92;;;16.30;63.20;;;;;;4175003;28;20132;-62
2023/01/18 11:58:16;;;;;;;5.97;3.63;;;16.40;62.90;;;;;;4178196;28;20060;-62
2023/01/18 12:01:03;;;;;;;;;;;16.40;62.60;;;;;;4178609;28;20211;-61
2023/01/18 12:03:52;;;;;;;3.78;3.20;;;16.40;62.50;;;;;;4178053;28;20433;-61
2023/01/18 12:06:44;;;;;;;5.88;3.25;;;16.40;62.40;;;;;;4178151;28;20565;-62
2023/01/18 12:09:36;;;;;;;3.85;3.53;;;16.50;62.40;;;;;;4177512;28;20265;-62
2023/01/18 12:12:30;;;;;;;3.97;3.10;;;16.40;62.20;;;;;;4177666;28;20051;-62
2023/01/18 12:15:40;;;;;;;5.88;3.83;;;16.40;62.10;;;;;;4177451;28;20055;-62
2023/01/18 12:18:50;;;;;;;4.32;3.63;;;16.40;62.00;;;;;;4177822;28;20052;-62
2023/01/18 12:21:44;;;;;;;5.13;3.80;;;16.40;62.20;;;;;;4177741;28;20051;-62
2023/01/18 12:24:37;;;;;;;5.38;3.53;;;16.40;62.20;;;;;;4177252;28;20511;-62
2023/01/18 12:27:27;;;;;;;4.55;4.00;;;16.30;62.10;;;;;;4177420;28;20098;-62
2023/01/18 12:30:31;;;;;;;3.60;3.30;;;16.30;62.30;;;;;;4176025;28;20044;-62
2023/01/18 12:33:19;;;;;;;5.63;3.28;;;16.30;62.50;;;;;;4177327;28;20488;-62
2023/01/18 12:36:44;;;;;;;5.70;3.00;;;16.30;62.50;;;;;;4177126;28;20507;-62
2023/01/18 12:39:42;;;;;;;5.47;3.05;;;16.30;62.10;;;;;;4131214;28;20051;-62
2023/01/18 12:42:36;;;;;;;4.72;3.50;;;16.30;62.30;;;;;;4177251;28;20056;-62
2023/01/18 12:45:27;;;;;;;3.95;3.10;;;16.30;62.40;;;;;;4177212;28;20063;-63
2023/01/18 12:48:17;;;;;;;3.88;3.35;;;16.30;62.40;;;;;;4176016;28;20595;-62
2023/01/18 12:51:00;;;;;;;3.85;2.85;;;16.20;62.40;;;;;;4177233;28;20130;-62
2023/01/18 12:53:44;;;;;;;4.40;3.03;;;16.20;62.70;;;;;;4177487;28;20055;-62
2023/01/18 12:56:30;;;;;;;4.95;3.60;;;16.10;62.90;;;;;;4177387;28;20048;-61
2023/01/18 12:59:17;;;;;;;5.68;3.13;;;16.10;63.20;;;;;;4175883;28;20055;-62
2023/01/18 13:02:04;;;;;;;4.75;3.30;;;16.00;63.50;;;;;;4176860;28;20529;-62
2023/01/18 13:04:52;;;;;;;3.58;2.72;;;15.90;63.80;;;;;;4176940;28;20110;-62
2023/01/18 13:07:37;;;;;;;3.42;3.08;;;15.80;64.20;;;;;;4176986;28;20056;-62
2023/01/18 13:10:23;;;;;;;3.88;2.78;;;15.80;64.50;;;;;;4177156;28;20094;-61
2023/01/18 13:13:06;;;;;;;4.50;2.75;;;15.80;64.50;;;;;;4176803;28;20048;-62
2023/01/18 13:15:53;;;;;;;3.20;2.75;;;15.80;64.60;;;;;;4174843;28;20052;-62
2023/01/18 13:18:42;;;;;;;5.15;2.88;;;15.80;64.60;;;;;;4176654;28;20096;-62
2023/01/18 13:21:34;;;;;;;5.25;2.85;;;15.80;64.60;;;;;;4176676;28;20183;-66
2023/01/18 13:24:25;;;;;;;3.75;2.97;;;15.80;64.50;;;;;;4176713;28;20048;-66
2023/01/18 13:27:12;;;;;;;5.78;3.28;;;15.80;64.60;;;;;;4176824;28;20167;-67
2023/01/18 13:29:52;;;;;;;4.22;3.38;;;15.80;64.80;;;;;;4176438;28;20044;-66
2023/01/18 13:32:36;;;;;;;4.80;3.10;;;15.80;64.80;;;;;;4175534;28;20048;-66
2023/01/18 13:35:21;;;;;;;3.85;3.53;;;15.70;64.90;;;;;;4176147;28;20052;-66
2023/01/18 13:38:11;;;;;;;4.70;3.40;;;15.70;65.00;;;;;;4174753;28;20048;-66
2023/01/18 13:40:54;;;;;;;4.13;3.08;;;15.70;64.90;;;;;;4175716;28;20048;-66
2023/01/18 13:44:06;;;;;;;4.13;2.85;;;15.70;64.90;;;;;;4175380;28;20052;-66
2023/01/18 13:46:47;;;;;;;5.00;3.22;;;15.60;64.70;;;;;;4176137;28;20095;-66
2023/01/18 13:49:36;;;;;;;5.35;3.65;;;15.60;65.00;;;;;;4176179;28;20044;-66
2023/01/18 13:52:37;;;;;;;4.43;3.13;;;15.70;64.70;;;;;;4176300;28;20059;-66
2023/01/18 13:55:26;;;;;;;4.70;3.25;;;15.70;64.30;;;;;;4175841;28;20056;-66
2023/01/18 13:58:18;;;;;;;5.13;3.08;;;15.70;64.40;;;;;;4176396;28;20163;-67
2023/01/18 14:01:03;;;;;;;5.88;2.95;;;15.70;64.20;;;;;;4176369;28;20044;-66
2023/01/18 14:03:48;;;;;;;4.47;2.97;;;15.70;64.20;;;;;;4176406;28;20133;-66
2023/01/18 14:06:32;;;;;;;3.88;2.90;;;15.70;64.30;;;;;;4176024;28;20174;-67
2023/01/18 14:09:17;;;;;;;4.95;2.92;;;15.70;64.30;;;;;;4176095;28;20126;-66
2023/01/18 14:11:59;;;;;;;3.35;3.00;;;15.70;64.30;;;;;;4176209;28;20051;-66
2023/01/18 14:14:53;;;;;;;;;;;15.70;64.30;;;;;;4176474;28;20052;-66
2023/01/18 14:17:36;;;;;;;3.55;3.13;;;15.70;64.40;;;;;;4185939;28;20445;-66
2023/01/18 14:21:01;;;;;;;6.93;3.30;;;15.70;64.40;;;;;;4175477;28;20856;-66
2023/01/18 14:24:15;;;;;;;3.67;2.90;;;15.80;64.10;;;;;;4174653;28;20055;-66
2023/01/18 14:26:57;;;;;;;4.72;2.83;;;15.90;63.70;;;;;;4174829;28;20051;-66
2023/01/18 14:29:45;;;;;;;4.75;2.63;;;15.90;63.90;;;;;;4175787;28;20056;-66
2023/01/18 14:32:32;;;;;;;4.80;3.22;;;16.00;63.40;;;;;;4176110;28;20195;-66
2023/01/18 14:35:21;;;;;;;4.68;2.55;;;16.10;62.80;;;;;;4175827;28;20186;-66
2023/01/18 14:38:06;;;;;;;3.33;2.72;;;16.20;62.30;;;;;;4175618;28;20183;-65
2023/01/18 14:41:00;;;;;;;5.63;3.13;;;16.20;62.00;;;;;;4175952;28;20047;-66
2023/01/18 14:43:46;;;;;;;4.53;3.00;;;16.30;61.70;;;;;;4175653;28;20071;-66
2023/01/18 14:46:26;;;;;;;3.92;3.03;;;16.30;61.50;;;;;;4175777;28;20072;-66